Time;durP1;ratioP1;P1;durP2;ratioP2;P2;SDS_P1;SDS_P2;PMS_P1;PMS_P2;Temp;Humidity;BMP_temperature;BMP_pressure;BME280_temperature;BME280_humidity;BME280_pressure;Samples;Min_cycle;Max_cycle;Signal;HPM_P1;HPM_P2
2023/12/21 00:02:23;;;;;;;17.65;5.70;;;9.50;99.90;;;;;;7360040;19;20540;-73
2023/12/21 00:04:50;;;;;;;19.08;6.35;;;9.50;99.90;;;;;;7367171;19;20022;-73
2023/12/21 00:07:17;;;;;;;25.40;7.30;;;9.50;99.90;;;;;;7358102;19;20010;-73
2023/12/21 00:09:43;;;;;;;21.40;6.80;;;9.60;99.90;;;;;;7362364;19;20662;-73
2023/12/21 00:12:10;;;;;;;23.95;7.05;;;9.50;99.90;;;;;;7361909;19;20466;-73
2023/12/21 00:14:39;;;;;;;26.30;7.10;;;9.50;99.90;;;;;;7361627;19;20014;-73
2023/12/21 00:17:07;;;;;;;26.20;7.78;;;9.50;99.90;;;;;;7357751;19;20102;-73
2023/12/21 00:19:53;;;;;;;28.30;7.82;;;9.50;99.90;;;;;;7363312;19;20802;-72
2023/12/21 00:22:23;;;;;;;24.17;7.43;;;9.50;99.90;;;;;;7352302;19;20680;-73
2023/12/21 00:24:49;;;;;;;21.08;6.63;;;9.50;99.90;;;;;;7360296;19;20725;-72
2023/12/21 00:27:15;;;;;;;28.23;8.55;;;9.60;99.90;;;;;;7364185;19;20078;-69
2023/12/21 00:29:42;;;;;;;26.83;8.15;;;9.60;99.90;;;;;;7357683;19;20580;-70
2023/12/21 00:32:08;;;;;;;30.30;7.95;;;9.50;99.90;;;;;;7360959;19;20044;-70
2023/12/21 00:34:34;;;;;;;22.45;8.10;;;9.60;99.90;;;;;;7360667;19;20015;-69
2023/12/21 00:37:00;;;;;;;21.10;6.60;;;9.50;99.90;;;;;;7355993;19;20025;-70
2023/12/21 00:39:27;;;;;;;19.67;7.22;;;9.60;99.90;;;;;;7360506;19;20802;-70
2023/12/21 00:41:53;;;;;;;21.60;6.82;;;9.60;99.90;;;;;;7355743;19;20022;-70
2023/12/21 00:44:19;;;;;;;20.35;7.10;;;9.60;99.90;;;;;;7362586;19;20021;-69
2023/12/21 00:46:46;;;;;;;20.50;6.90;;;9.50;99.90;;;;;;7353151;19;20498;-70
2023/12/21 00:49:12;;;;;;;22.88;7.72;;;9.50;99.90;;;;;;7363148;19;20022;-69
2023/12/21 00:51:38;;;;;;;21.45;7.38;;;9.60;99.90;;;;;;7353317;19;20058;-70
2023/12/21 00:54:05;;;;;;;23.55;7.45;;;9.60;99.90;;;;;;7354571;19;20022;-69
2023/12/21 00:56:31;;;;;;;20.25;7.03;;;9.50;99.90;;;;;;7358395;19;20022;-69
2023/12/21 00:58:59;;;;;;;23.80;6.93;;;9.60;99.90;;;;;;7352977;19;20027;-70
2023/12/21 01:01:28;;;;;;;16.67;6.88;;;9.50;99.90;;;;;;7362554;19;20018;-73
2023/12/21 01:03:55;;;;;;;20.30;7.35;;;9.60;99.90;;;;;;7357196;19;20010;-74
2023/12/21 01:06:21;;;;;;;22.23;7.32;;;9.60;99.90;;;;;;7357683;19;20526;-74
2023/12/21 01:08:48;;;;;;;25.85;9.13;;;9.60;99.90;;;;;;7360653;19;20392;-74
2023/12/21 01:11:17;;;;;;;20.90;7.35;;;9.60;99.90;;;;;;7352234;19;20010;-74
2023/12/21 01:13:44;;;;;;;28.58;7.28;;;9.60;99.90;;;;;;7363741;19;20585;-74
2023/12/21 01:16:30;;;;;;;26.30;7.32;;;9.60;99.90;;;;;;7362606;19;20022;-75
2023/12/21 01:18:58;;;;;;;23.65;7.80;;;9.60;99.90;;;;;;7358063;19;20015;-74
2023/12/21 01:21:25;;;;;;;20.73;6.47;;;9.60;99.90;;;;;;7353673;19;20015;-76
2023/12/21 01:23:51;;;;;;;18.02;7.63;;;9.60;99.90;;;;;;7362369;19;20026;-76
2023/12/21 01:26:38;;;;;;;20.15;6.60;;;9.60;99.90;;;;;;7352089;19;20354;-75
2023/12/21 01:29:04;;;;;;;22.80;6.70;;;9.60;99.90;;;;;;7359673;19;20022;-75
2023/12/21 01:31:31;;;;;;;24.13;6.80;;;9.60;99.90;;;;;;7363829;19;20479;-75
2023/12/21 01:33:59;;;;;;;21.00;6.47;;;9.60;99.90;;;;;;7359486;19;20026;-76
2023/12/21 01:36:26;;;;;;;24.95;8.35;;;9.60;99.90;;;;;;7357607;19;20776;-75
2023/12/21 01:38:52;;;;;;;27.20;7.07;;;9.60;99.90;;;;;;7361209;19;20015;-75
2023/12/21 01:41:19;;;;;;;20.42;6.65;;;9.60;99.90;;;;;;7349599;19;20022;-75
2023/12/21 01:43:45;;;;;;;22.35;6.63;;;9.60;99.90;;;;;;7358753;19;20018;-75
2023/12/21 01:46:12;;;;;;;22.30;7.65;;;9.60;99.90;;;;;;7351077;19;21148;-71
2023/12/21 01:48:40;;;;;;;19.80;6.80;;;9.60;99.90;;;;;;7355559;19;20053;-72
2023/12/21 01:51:09;;;;;;;24.45;6.63;;;9.60;99.90;;;;;;7356325;19;20470;-71
2023/12/21 01:53:39;;;;;;;28.65;7.57;;;9.50;99.90;;;;;;7353195;19;20026;-71
2023/12/21 01:56:07;;;;;;;24.40;7.07;;;9.60;99.90;;;;;;7356445;19;20046;-71
2023/12/21 01:58:33;;;;;;;18.98;6.65;;;9.60;99.90;;;;;;7351225;19;20030;-71
2023/12/21 02:01:03;;;;;;;18.00;5.82;;;9.60;99.90;;;;;;7353766;19;20042;-70
2023/12/21 02:03:30;;;;;;;24.52;7.13;;;9.60;99.90;;;;;;7350919;19;20019;-71
2023/12/21 02:05:56;;;;;;;23.77;7.22;;;9.60;99.90;;;;;;7359249;19;20588;-71
2023/12/21 02:08:22;;;;;;;17.88;6.50;;;9.60;99.90;;;;;;7355387;19;20026;-71
2023/12/21 02:10:49;;;;;;;24.45;7.32;;;9.60;99.90;;;;;;7361113;19;20507;-76
2023/12/21 02:13:16;;;;;;;22.67;6.35;;;9.60;99.90;;;;;;7357861;19;20042;-76
2023/12/21 02:15:43;;;;;;;21.15;6.35;;;9.60;99.90;;;;;;7361568;19;20030;-70
2023/12/21 02:18:11;;;;;;;15.50;5.72;;;9.60;99.90;;;;;;7367180;19;20018;-76
2023/12/21 02:20:39;;;;;;;23.27;5.88;;;9.70;99.90;;;;;;7364657;19;20018;-76
2023/12/21 02:23:07;;;;;;;15.63;4.50;;;9.60;99.90;;;;;;7366053;19;20023;-76
2023/12/21 02:25:35;;;;;;;24.55;5.90;;;9.60;99.90;;;;;;7359247;19;20102;-71
2023/12/21 02:28:01;;;;;;;23.40;5.22;;;9.60;99.90;;;;;;7366837;19;20022;-70
2023/12/21 02:30:27;;;;;;;20.23;5.00;;;9.70;99.90;;;;;;7350170;19;20018;-70
2023/12/21 02:32:54;;;;;;;14.48;4.40;;;9.70;99.90;;;;;;7367504;19;20038;-71
2023/12/21 02:35:21;;;;;;;25.88;5.50;;;9.60;99.90;;;;;;7370586;19;20082;-75
2023/12/21 02:37:47;;;;;;;17.50;4.85;;;9.60;99.90;;;;;;7368215;19;20041;-76
2023/12/21 02:40:13;;;;;;;15.27;4.50;;;9.60;99.90;;;;;;7361350;19;20035;-76
2023/12/21 02:42:40;;;;;;;24.23;4.80;;;9.60;99.90;;;;;;7363304;19;20054;-75
2023/12/21 02:45:07;;;;;;;18.70;5.63;;;9.60;99.90;;;;;;7360642;19;20014;-76
2023/12/21 02:47:34;;;;;;;17.10;5.38;;;9.50;99.90;;;;;;7363805;19;20029;-76
2023/12/21 02:50:01;;;;;;;16.65;5.30;;;9.50;99.90;;;;;;7367451;19;20054;-71
2023/12/21 02:52:28;;;;;;;17.85;6.32;;;9.50;99.90;;;;;;7361955;19;20035;-70
2023/12/21 02:54:54;;;;;;;19.70;5.70;;;9.50;99.90;;;;;;7368720;19;20022;-71
2023/12/21 02:57:21;;;;;;;17.50;5.53;;;9.50;99.90;;;;;;7356887;19;22305;-71
2023/12/21 02:59:50;;;;;;;16.83;5.72;;;9.50;99.90;;;;;;7364452;19;20023;-71
2023/12/21 03:02:16;;;;;;;23.45;8.15;;;9.50;99.90;;;;;;7354075;19;20021;-75
2023/12/21 03:04:43;;;;;;;22.98;6.68;;;9.50;99.90;;;;;;7364780;19;20029;-75
2023/12/21 03:07:09;;;;;;;19.00;6.55;;;9.50;99.90;;;;;;7368770;19;20023;-75
2023/12/21 03:09:35;;;;;;;14.85;6.90;;;9.40;99.90;;;;;;7363970;19;20482;-76
2023/12/21 03:12:01;;;;;;;16.67;5.90;;;9.40;99.90;;;;;;7364962;19;20026;-71
2023/12/21 03:14:28;;;;;;;22.27;5.75;;;9.40;99.90;;;;;;7361053;19;20046;-70
2023/12/21 03:17:14;;;;;;;15.90;5.78;;;9.40;99.90;;;;;;7356205;19;20050;-70
2023/12/21 03:19:43;;;;;;;19.80;5.95;;;9.40;99.90;;;;;;7352558;19;20594;-71
2023/12/21 03:22:09;;;;;;;17.30;6.60;;;9.40;99.90;;;;;;7362543;19;20022;-71
2023/12/21 03:24:39;;;;;;;18.75;6.18;;;9.40;99.90;;;;;;7353194;19;21119;-70
2023/12/21 03:27:06;;;;;;;15.68;5.78;;;9.40;99.90;;;;;;7362614;19;20077;-70
2023/12/21 03:29:33;;;;;;;17.20;6.13;;;9.40;99.90;;;;;;7363932;19;20051;-73
2023/12/21 03:32:00;;;;;;;21.05;6.63;;;9.40;99.90;;;;;;7365743;19;20879;-73
2023/12/21 03:34:26;;;;;;;17.83;6.03;;;9.40;99.90;;;;;;7355567;19;20090;-74
2023/12/21 03:36:53;;;;;;;13.13;5.72;;;9.40;99.90;;;;;;7360577;19;20828;-73
2023/12/21 03:39:22;;;;;;;14.88;5.55;;;9.40;99.90;;;;;;7362744;19;20025;-74
2023/12/21 03:41:48;;;;;;;20.75;6.70;;;9.40;99.90;;;;;;7357599;19;20382;-73
2023/12/21 03:44:14;;;;;;;16.27;6.13;;;9.40;99.90;;;;;;7360496;19;20086;-73
2023/12/21 03:46:40;;;;;;;13.68;6.35;;;9.40;99.90;;;;;;7362153;19;20014;-73
2023/12/21 03:49:07;;;;;;;17.30;6.68;;;9.40;99.90;;;;;;7355594;19;20837;-73
2023/12/21 03:51:33;;;;;;;17.95;6.18;;;9.40;99.90;;;;;;7360275;19;20022;-73
2023/12/21 03:54:00;;;;;;;20.23;7.13;;;9.40;99.90;;;;;;7357855;19;20842;-74
2023/12/21 03:56:26;;;;;;;16.55;6.47;;;9.40;99.90;;;;;;7353931;19;20896;-70
2023/12/21 03:58:52;;;;;;;13.55;6.82;;;9.40;99.90;;;;;;7357448;19;20049;-70
2023/12/21 04:01:25;;;;;;;13.48;6.82;;;9.40;99.90;;;;;;7358287;19;20048;-70
2023/12/21 04:03:52;;;;;;;15.82;6.95;;;9.40;99.90;;;;;;7358763;19;20014;-71
2023/12/21 04:06:18;;;;;;;18.75;8.23;;;9.40;99.90;;;;;;7367514;19;20623;-70
2023/12/21 04:08:44;;;;;;;13.65;6.05;;;9.40;99.90;;;;;;7354008;19;20697;-70
2023/12/21 04:11:12;;;;;;;14.93;7.28;;;9.50;99.90;;;;;;7365480;19;20357;-70
2023/12/21 04:13:41;;;;;;;21.75;8.25;;;9.40;99.90;;;;;;7353869;19;20063;-72
2023/12/21 04:16:08;;;;;;;16.35;6.78;;;9.50;99.90;;;;;;7355993;19;20018;-70
2023/12/21 04:18:34;;;;;;;21.35;7.40;;;9.50;99.90;;;;;;7361324;19;20015;-70
2023/12/21 04:21:00;;;;;;;18.05;7.75;;;9.50;99.90;;;;;;7361591;19;20090;-70
2023/12/21 04:23:26;;;;;;;16.13;7.38;;;9.50;99.90;;;;;;7367443;19;20019;-73
2023/12/21 04:25:56;;;;;;;21.45;8.23;;;9.50;99.90;;;;;;7358177;19;20018;-69
2023/12/21 04:28:22;;;;;;;21.08;7.60;;;9.50;99.90;;;;;;7360062;19;20025;-70
2023/12/21 04:30:49;;;;;;;17.55;7.07;;;9.50;99.90;;;;;;7355435;19;20043;-70
2023/12/21 04:33:18;;;;;;;15.60;7.38;;;9.50;99.90;;;;;;7363602;19;20026;-70
2023/12/21 04:36:04;;;;;;;16.20;7.10;;;9.50;99.90;;;;;;7352380;19;20061;-69
2023/12/21 04:38:31;;;;;;;18.70;6.95;;;9.60;99.90;;;;;;7357895;19;20074;-73
2023/12/21 04:41:17;;;;;;;14.93;7.85;;;9.60;99.90;;;;;;7361697;19;20025;-73
2023/12/21 04:43:43;;;;;;;23.15;7.50;;;9.50;99.90;;;;;;7359857;19;20028;-73
2023/12/21 04:46:09;;;;;;;14.57;7.03;;;9.60;99.90;;;;;;7363409;19;20534;-73
2023/12/21 04:48:37;;;;;;;19.40;7.25;;;9.50;99.90;;;;;;7361398;19;20499;-73
2023/12/21 04:51:03;;;;;;;18.20;7.15;;;9.50;99.90;;;;;;7363610;19;20098;-73
2023/12/21 04:53:29;;;;;;;18.70;6.57;;;9.50;99.90;;;;;;7361958;19;20022;-73
2023/12/21 04:55:55;;;;;;;17.85;7.30;;;9.50;99.90;;;;;;7360513;19;20029;-74
2023/12/21 04:58:22;;;;;;;17.30;6.80;;;9.50;99.90;;;;;;7361255;19;20077;-75
2023/12/21 05:00:50;;;;;;;21.23;7.47;;;9.50;99.90;;;;;;7364592;19;20018;-74
2023/12/21 05:03:18;;;;;;;15.27;6.53;;;9.50;99.90;;;;;;7368187;19;20334;-74
2023/12/21 05:05:45;;;;;;;19.63;7.22;;;9.50;99.90;;;;;;7362075;19;20048;-75
2023/12/21 05:08:12;;;;;;;17.40;6.80;;;9.50;99.90;;;;;;7362532;19;20026;-73
2023/12/21 05:10:39;;;;;;;13.95;6.90;;;9.50;99.90;;;;;;7361591;19;20019;-71
2023/12/21 05:13:06;;;;;;;19.27;7.13;;;9.60;99.90;;;;;;7366657;19;20023;-70
2023/12/21 05:15:32;;;;;;;13.43;7.25;;;9.60;99.90;;;;;;7359246;19;20248;-69
2023/12/21 05:18:01;;;;;;;18.02;6.57;;;9.60;99.90;;;;;;7365172;19;20123;-70
2023/12/21 05:20:29;;;;;;;19.17;8.13;;;9.60;99.90;;;;;;7362620;19;20081;-70
2023/12/21 05:22:55;;;;;;;23.88;6.78;;;9.50;99.90;;;;;;7368366;19;20352;-73
2023/12/21 05:25:21;;;;;;;20.35;6.50;;;9.60;99.90;;;;;;7356600;19;20027;-72
2023/12/21 05:27:48;;;;;;;18.90;6.93;;;9.50;99.90;;;;;;7361436;19;20015;-72
2023/12/21 05:30:19;;;;;;;14.70;6.57;;;9.60;99.90;;;;;;7364649;19;20014;-72
2023/12/21 05:32:45;;;;;;;24.10;6.55;;;9.60;99.90;;;;;;7362414;19;20084;-72
2023/12/21 05:35:13;;;;;;;21.00;6.40;;;9.60;99.90;;;;;;7361012;19;20022;-73
2023/12/21 05:37:39;;;;;;;20.08;5.90;;;9.60;99.90;;;;;;7362601;19;20014;-73
2023/12/21 05:40:06;;;;;;;15.55;5.07;;;9.50;99.90;;;;;;7361125;19;20026;-73
2023/12/21 05:42:32;;;;;;;13.57;5.25;;;9.60;99.90;;;;;;7366967;19;20726;-74
2023/12/21 05:44:59;;;;;;;13.52;5.53;;;9.60;99.90;;;;;;7374123;19;20015;-70
2023/12/21 05:47:45;;;;;;;11.82;5.05;;;9.60;99.90;;;;;;7372215;19;20078;-70
2023/12/21 05:50:12;;;;;;;16.08;4.82;;;9.60;99.90;;;;;;7371026;19;20382;-70
2023/12/21 05:52:38;;;;;;;22.20;5.50;;;9.60;99.90;;;;;;7377309;19;20038;-70
2023/12/21 05:55:04;;;;;;;18.60;5.05;;;9.60;99.90;;;;;;7371971;19;20485;-69
2023/12/21 05:57:31;;;;;;;17.90;4.82;;;9.60;99.90;;;;;;7369771;19;21521;-71
2023/12/21 05:59:57;;;;;;;18.08;4.53;;;9.70;99.90;;;;;;7373024;19;20026;-70
2023/12/21 06:02:26;;;;;;;16.73;5.25;;;9.60;99.90;;;;;;7375302;19;20038;-71
2023/12/21 06:04:52;;;;;;;14.13;4.30;;;9.70;99.90;;;;;;7371980;19;20026;-71
2023/12/21 06:07:19;;;;;;;12.30;4.38;;;9.70;99.90;;;;;;7370188;19;20758;-70
2023/12/21 06:09:45;;;;;;;18.73;4.22;;;9.60;99.90;;;;;;7375872;19;20023;-71
2023/12/21 06:12:14;;;;;;;20.85;5.28;;;9.70;99.90;;;;;;7371543;19;20955;-70
2023/12/21 06:14:40;;;;;;;16.48;4.45;;;9.70;99.90;;;;;;7376359;19;20387;-70
2023/12/21 06:17:07;;;;;;;10.35;3.95;;;9.70;99.90;;;;;;7368546;19;20048;-71
2023/12/21 06:19:33;;;;;;;16.67;4.03;;;9.60;99.90;;;;;;7372384;19;20022;-69
2023/12/21 06:22:00;;;;;;;11.57;3.90;;;9.70;99.90;;;;;;7371996;19;20453;-70
2023/12/21 06:24:26;;;;;;;14.32;4.28;;;9.70;99.90;;;;;;7374932;19;20026;-70
2023/12/21 06:26:53;;;;;;;13.13;4.60;;;9.70;99.90;;;;;;7371549;19;20444;-70
2023/12/21 06:29:42;;;;;;;19.20;4.35;;;9.70;99.90;;;;;;7375997;19;20018;-69
2023/12/21 06:32:10;;;;;;;16.17;4.10;;;9.70;99.90;;;;;;7376823;19;20025;-70
2023/12/21 06:34:36;;;;;;;17.42;4.88;;;9.80;99.90;;;;;;7367245;19;20045;-71
2023/12/21 06:37:03;;;;;;;13.18;4.38;;;9.80;99.90;;;;;;7370854;19;20033;-70
2023/12/21 06:39:31;;;;;;;10.63;4.13;;;9.80;99.90;;;;;;7370239;19;20018;-74
2023/12/21 06:41:57;;;;;;;18.42;4.70;;;9.80;99.90;;;;;;7369566;19;20093;-73
2023/12/21 06:44:23;;;;;;;15.05;5.05;;;9.80;99.90;;;;;;7375005;19;20014;-73
2023/12/21 06:46:50;;;;;;;11.65;3.28;;;9.80;99.90;;;;;;7372719;19;21285;-69
2023/12/21 06:49:17;;;;;;;13.38;4.18;;;9.90;99.90;;;;;;7372343;19;20026;-69
2023/12/21 06:51:45;;;;;;;9.00;4.00;;;9.80;99.90;;;;;;7370878;19;20086;-69
2023/12/21 06:54:14;;;;;;;16.95;4.35;;;9.90;99.90;;;;;;7367892;19;20081;-69
2023/12/21 06:56:40;;;;;;;14.98;3.80;;;9.80;99.90;;;;;;7365935;19;20686;-70
2023/12/21 06:59:07;;;;;;;10.40;3.25;;;9.90;99.90;;;;;;7368692;19;20106;-69
2023/12/21 07:01:34;;;;;;;18.42;4.72;;;9.80;99.90;;;;;;7360745;19;20026;-67
2023/12/21 07:04:00;;;;;;;10.00;3.42;;;9.80;99.90;;;;;;7366399;19;20767;-71
2023/12/21 07:06:27;;;;;;;12.05;3.90;;;9.80;99.90;;;;;;7365340;19;20044;-71
2023/12/21 07:08:54;;;;;;;13.32;3.63;;;9.80;99.90;;;;;;7368948;19;20059;-70
2023/12/21 07:11:23;;;;;;;13.13;4.43;;;9.80;99.90;;;;;;7372296;19;20027;-69
2023/12/21 07:14:09;;;;;;;15.18;4.13;;;9.80;99.90;;;;;;7374923;19;20035;-69
2023/12/21 07:16:36;;;;;;;11.68;3.60;;;9.70;99.90;;;;;;7373506;19;20034;-66
2023/12/21 07:19:02;;;;;;;10.52;3.70;;;9.70;99.90;;;;;;7372738;19;20851;-69
2023/12/21 07:21:29;;;;;;;10.25;3.53;;;9.70;99.90;;;;;;7372542;19;20019;-70
2023/12/21 07:23:55;;;;;;;11.98;3.60;;;9.60;99.90;;;;;;7369976;19;20014;-71
2023/12/21 07:26:22;;;;;;;7.72;3.20;;;9.70;99.90;;;;;;7368557;19;20022;-71
2023/12/21 07:28:48;;;;;;;11.30;3.13;;;9.70;99.90;;;;;;7368300;19;20019;-68
2023/12/21 07:31:17;;;;;;;15.25;3.08;;;9.60;99.90;;;;;;7373927;19;20038;-68
2023/12/21 07:33:43;;;;;;;9.52;2.88;;;9.70;99.90;;;;;;7370149;19;20727;-67
2023/12/21 07:36:10;;;;;;;10.07;3.85;;;9.60;99.90;;;;;;7367060;19;20022;-67
2023/12/21 07:38:39;;;;;;;12.02;3.47;;;9.70;99.90;;;;;;7370606;19;20026;-68
2023/12/21 07:41:08;;;;;;;9.73;3.47;;;9.60;99.90;;;;;;7367317;19;20022;-68
2023/12/21 07:43:34;;;;;;;6.80;3.40;;;9.60;99.90;;;;;;7364620;19;20313;-68
2023/12/21 07:46:00;;;;;;;8.02;3.20;;;9.70;99.90;;;;;;7370907;19;20015;-68
2023/12/21 07:48:27;;;;;;;6.35;3.22;;;9.70;99.90;;;;;;7371292;19;20029;-71
2023/12/21 07:50:53;;;;;;;11.70;2.90;;;9.70;99.90;;;;;;7368091;19;20056;-71
2023/12/21 07:53:19;;;;;;;12.20;4.70;;;9.70;99.90;;;;;;7369182;19;20682;-68
2023/12/21 07:55:45;;;;;;;7.82;3.13;;;9.70;99.90;;;;;;7369771;19;20039;-68
2023/12/21 07:58:13;;;;;;;9.85;3.97;;;9.70;99.90;;;;;;7369425;19;20478;-68
2023/12/21 08:00:59;;;;;;;6.43;2.92;;;9.70;99.90;;;;;;7366911;19;20014;-68
2023/12/21 08:03:25;;;;;;;5.28;2.83;;;9.70;99.90;;;;;;7363352;19;20017;-68
2023/12/21 08:05:52;;;;;;;8.68;2.90;;;9.70;99.90;;;;;;7371900;19;20078;-68
2023/12/21 08:08:19;;;;;;;7.90;3.00;;;9.70;99.90;;;;;;7374235;19;20115;-69
2023/12/21 08:10:45;;;;;;;10.07;3.60;;;9.60;99.90;;;;;;7367657;19;20067;-71
2023/12/21 08:13:13;;;;;;;7.20;2.65;;;9.70;99.90;;;;;;7374324;19;20023;-68
2023/12/21 08:15:40;;;;;;;8.15;2.85;;;9.60;99.90;;;;;;7366877;19;20018;-67
2023/12/21 08:18:06;;;;;;;5.43;2.20;;;9.70;99.90;;;;;;7365499;19;20506;-68
2023/12/21 08:20:36;;;;;;;5.22;2.28;;;9.70;99.90;;;;;;7368958;19;20037;-68
2023/12/21 08:23:03;;;;;;;5.82;2.30;;;9.70;99.90;;;;;;7367920;19;20023;-67
2023/12/21 08:25:31;;;;;;;6.10;2.58;;;9.60;99.90;;;;;;7361364;19;20029;-67
2023/12/21 08:27:58;;;;;;;5.28;2.13;;;9.70;99.90;;;;;;7364294;19;20082;-71
2023/12/21 08:30:24;;;;;;;7.35;2.63;;;9.70;99.90;;;;;;7363613;19;20015;-70
2023/12/21 08:32:54;;;;;;;7.20;3.05;;;9.70;99.90;;;;;;7366641;19;20025;-70
2023/12/21 08:35:21;;;;;;;5.40;2.22;;;9.70;99.90;;;;;;7360576;19;20112;-69
2023/12/21 08:37:47;;;;;;;7.97;2.72;;;9.70;99.90;;;;;;7365195;19;20011;-70
2023/12/21 08:40:15;;;;;;;7.03;1.65;;;9.70;99.90;;;;;;7365895;19;20033;-68
2023/12/21 08:42:44;;;;;;;5.28;1.83;;;9.70;99.90;;;;;;7367966;19;20017;-70
2023/12/21 08:45:10;;;;;;;5.00;1.88;;;9.70;99.90;;;;;;7364623;19;20067;-67
2023/12/21 08:47:40;;;;;;;7.32;4.55;;;9.80;99.90;;;;;;7361379;19;20018;-67
2023/12/21 08:50:11;;;;;;;7.63;2.22;;;9.80;99.90;;;;;;7365465;19;20022;-67
2023/12/21 08:52:38;;;;;;;6.35;2.40;;;9.90;99.90;;;;;;7360706;19;20018;-69
2023/12/21 08:55:07;;;;;;;6.45;2.13;;;9.90;99.90;;;;;;7369681;19;20456;-67
2023/12/21 08:57:36;;;;;;;5.05;2.00;;;10.00;99.90;;;;;;7364588;19;20032;-68
2023/12/21 09:00:13;;;;;;;11.50;2.40;;;9.80;99.90;;;;;;7365746;19;20038;-68
2023/12/21 09:02:40;;;;;;;13.13;3.03;;;9.90;99.90;;;;;;7362321;19;20585;-69
2023/12/21 09:05:06;;;;;;;6.97;2.55;;;9.90;99.90;;;;;;7370874;19;20029;-69
2023/12/21 09:07:33;;;;;;;6.07;2.30;;;10.00;99.90;;;;;;7361899;19;20036;-70
2023/12/21 09:10:00;;;;;;;5.93;2.67;;;9.90;99.90;;;;;;7369747;19;20029;-68
2023/12/21 09:12:28;;;;;;;10.25;2.92;;;9.90;99.90;;;;;;7365210;19;20033;-67
2023/12/21 09:14:54;;;;;;;11.45;2.60;;;10.00;99.90;;;;;;7360760;19;20027;-69
2023/12/21 09:17:20;;;;;;;11.60;3.40;;;9.90;99.90;;;;;;7367549;19;20010;-71
2023/12/21 09:19:46;;;;;;;11.48;3.33;;;10.10;99.90;;;;;;7368280;19;20036;-70
2023/12/21 09:22:13;;;;;;;10.13;2.88;;;10.00;99.90;;;;;;7365399;19;20026;-70
2023/12/21 09:24:39;;;;;;;11.48;2.92;;;10.10;99.90;;;;;;7363313;19;20026;-68
2023/12/21 09:27:06;;;;;;;6.95;2.00;;;10.00;99.90;;;;;;7365871;19;20869;-70
2023/12/21 09:29:32;;;;;;;9.88;2.42;;;10.10;99.90;;;;;;7369743;19;20022;-70
2023/12/21 09:32:01;;;;;;;9.95;2.50;;;10.10;99.90;;;;;;7372153;19;20105;-70
2023/12/21 09:34:28;;;;;;;9.50;2.40;;;10.00;99.90;;;;;;7371212;19;20498;-70
2023/12/21 09:36:54;;;;;;;6.93;2.05;;;10.20;99.90;;;;;;7365411;19;20101;-70
2023/12/21 09:39:21;;;;;;;12.00;1.80;;;10.10;99.90;;;;;;7370513;19;20025;-70
2023/12/21 09:41:47;;;;;;;13.48;2.90;;;10.10;99.90;;;;;;7363960;19;20022;-67
2023/12/21 09:44:17;;;;;;;10.27;2.28;;;10.20;99.90;;;;;;7373596;19;20022;-67
2023/12/21 09:46:44;;;;;;;10.23;3.00;;;10.20;99.90;;;;;;7369066;19;20039;-67
2023/12/21 09:49:16;;;;;;;13.57;2.47;;;10.40;99.90;;;;;;7370322;19;20046;-67
2023/12/21 09:51:46;;;;;;;12.35;2.83;;;10.20;99.90;;;;;;7370304;19;20027;-70
2023/12/21 09:54:14;;;;;;;12.23;2.60;;;10.40;99.90;;;;;;7374645;19;20109;-71
2023/12/21 09:56:41;;;;;;;11.05;2.83;;;10.40;99.90;;;;;;7368831;19;20022;-68
2023/12/21 09:59:08;;;;;;;16.15;3.78;;;10.20;99.90;;;;;;7369616;19;20018;-68
2023/12/21 10:01:54;;;;;;;9.35;2.47;;;10.30;99.90;;;;;;7364671;19;20034;-70
2023/12/21 10:04:20;;;;;;;11.75;3.97;;;10.40;99.90;;;;;;7374037;19;20019;-68
2023/12/21 10:06:46;;;;;;;15.48;2.78;;;10.40;99.90;;;;;;7369004;19;20767;-68
2023/12/21 10:09:15;;;;;;;13.43;4.38;;;10.30;99.90;;;;;;7366809;19;20435;-68
2023/12/21 10:11:42;;;;;;;17.27;3.47;;;10.60;99.90;;;;;;7373609;19;20074;-71
2023/12/21 10:14:19;;;;;;;15.32;4.22;;;10.60;99.90;;;;;;7370128;19;20018;-70
2023/12/21 10:16:47;;;;;;;17.50;3.40;;;10.30;99.90;;;;;;7367934;19;20010;-71
2023/12/21 10:19:16;;;;;;;14.13;3.22;;;10.60;99.90;;;;;;7368844;19;20014;-70
2023/12/21 10:21:42;;;;;;;22.30;5.85;;;10.50;99.90;;;;;;7368119;19;20018;-70
2023/12/21 10:24:10;;;;;;;23.52;4.95;;;10.50;99.90;;;;;;7372069;19;20022;-69
2023/12/21 10:26:43;;;;;;;9.77;3.05;;;10.70;99.90;;;;;;7371029;19;20022;-69
2023/12/21 10:29:13;;;;;;;17.08;4.38;;;10.50;99.90;;;;;;7373850;19;20018;-69
2023/12/21 10:31:45;;;;;;;18.05;4.28;;;10.70;99.90;;;;;;7373573;19;20026;-69
2023/12/21 10:34:17;;;;;;;20.35;3.42;;;10.80;99.90;;;;;;7370907;19;20049;-69
2023/12/21 10:36:46;;;;;;;11.98;3.22;;;10.50;99.90;;;;;;7370697;19;20029;-69
2023/12/21 10:39:14;;;;;;;16.77;3.58;;;10.70;99.90;;;;;;7370513;19;20015;-69
2023/12/21 10:41:43;;;;;;;13.00;3.05;;;10.80;99.90;;;;;;7367476;19;20015;-70
2023/12/21 10:44:11;;;;;;;17.40;2.90;;;10.60;99.90;;;;;;7368745;19;20831;-69
2023/12/21 10:46:41;;;;;;;8.88;2.28;;;10.70;99.90;;;;;;7366093;19;20010;-70
2023/12/21 10:49:14;;;;;;;13.30;3.00;;;10.80;99.90;;;;;;7371345;19;20018;-70
2023/12/21 10:51:43;;;;;;;12.75;2.63;;;10.80;99.90;;;;;;7367233;19;20033;-70
2023/12/21 10:54:16;;;;;;;13.48;3.05;;;10.80;99.90;;;;;;7375168;19;20465;-72
2023/12/21 10:56:43;;;;;;;13.35;2.78;;;10.80;99.90;;;;;;7369885;19;20094;-70
2023/12/21 10:59:14;;;;;;;15.30;3.88;;;10.80;99.90;;;;;;7367426;19;20019;-70
2023/12/21 11:01:41;;;;;;;14.73;2.73;;;10.90;99.90;;;;;;7369999;19;20106;-72
2023/12/21 11:04:12;;;;;;;15.27;3.30;;;10.90;99.90;;;;;;7373423;19;20018;-73
2023/12/21 11:06:59;;;;;;;15.50;2.47;;;10.90;99.90;;;;;;7367389;19;20046;-73
2023/12/21 11:09:31;;;;;;;15.15;2.63;;;10.90;99.90;;;;;;7370373;19;20094;-73
2023/12/21 11:12:02;;;;;;;15.32;2.80;;;10.90;99.90;;;;;;7367085;19;20093;-71
2023/12/21 11:14:28;;;;;;;15.18;3.15;;;10.90;99.90;;;;;;7372194;19;20070;-71
2023/12/21 11:16:58;;;;;;;13.63;2.45;;;10.90;99.90;;;;;;7367262;19;20023;-71
2023/12/21 11:19:38;;;;;;;13.18;2.95;;;10.90;99.90;;;;;;7373704;19;20339;-73
2023/12/21 11:22:04;;;;;;;11.80;3.15;;;10.80;99.90;;;;;;7368552;19;20015;-71
2023/12/21 11:24:31;;;;;;;19.23;3.50;;;10.90;99.90;;;;;;7372984;19;20018;-71
2023/12/21 11:27:01;;;;;;;18.65;4.13;;;10.90;99.90;;;;;;7369980;19;20026;-74
2023/12/21 11:29:30;;;;;;;21.20;3.50;;;11.00;99.90;;;;;;7376232;19;20018;-74
2023/12/21 11:31:56;;;;;;;17.25;3.90;;;10.90;99.90;;;;;;7372083;19;20101;-74
2023/12/21 11:34:37;;;;;;;21.30;4.55;;;10.90;99.90;;;;;;7372873;19;20029;-74
2023/12/21 11:37:21;;;;;;;16.05;4.07;;;10.90;99.90;;;;;;7368773;19;20060;-71
2023/12/21 11:39:50;;;;;;;18.10;4.38;;;10.90;99.90;;;;;;7370853;19;20014;-71
2023/12/21 11:42:20;;;;;;;19.88;3.63;;;10.80;99.90;;;;;;7366479;19;20022;-73
2023/12/21 11:44:53;;;;;;;18.52;4.00;;;10.80;99.90;;;;;;7370602;19;20859;-75
2023/12/21 11:47:19;;;;;;;23.70;4.80;;;10.80;99.90;;;;;;7373831;19;20027;-75
2023/12/21 11:50:10;;;;;;;19.27;4.13;;;10.80;99.90;;;;;;7371571;19;20026;-75
2023/12/21 11:52:37;;;;;;;20.85;3.95;;;10.90;99.90;;;;;;7367137;19;20022;-71
2023/12/21 11:55:04;;;;;;;17.15;4.13;;;10.90;99.90;;;;;;7372017;19;20018;-70
2023/12/21 11:57:32;;;;;;;22.40;4.82;;;10.80;99.90;;;;;;7370112;19;20683;-77
2023/12/21 12:00:07;;;;;;;22.27;4.50;;;10.90;99.90;;;;;;7374136;19;20018;-75
2023/12/21 12:02:53;;;;;;;22.05;4.20;;;10.80;99.90;;;;;;7368182;19;20022;-75
2023/12/21 12:05:23;;;;;;;20.48;4.28;;;10.80;99.90;;;;;;7373905;19;20022;-70
2023/12/21 12:07:49;;;;;;;22.08;4.50;;;10.80;99.90;;;;;;7370164;19;20014;-70
2023/12/21 12:10:36;;;;;;;24.33;4.80;;;10.80;99.90;;;;;;7369740;19;20022;-71
2023/12/21 12:13:04;;;;;;;24.40;4.22;;;10.80;99.90;;;;;;7367288;19;20033;-70
2023/12/21 12:15:33;;;;;;;25.00;5.13;;;10.80;99.90;;;;;;7368688;19;20400;-70
2023/12/21 12:18:00;;;;;;;16.63;3.67;;;10.80;99.90;;;;;;7366795;19;20026;-75
2023/12/21 12:20:28;;;;;;;19.90;4.40;;;10.80;99.90;;;;;;7371839;19;20029;-75
2023/12/21 12:22:55;;;;;;;20.17;4.53;;;10.80;99.90;;;;;;7368962;19;20048;-75
2023/12/21 12:25:21;;;;;;;22.98;4.28;;;10.90;99.90;;;;;;7371155;19;20018;-75
2023/12/21 12:27:50;;;;;;;22.23;4.05;;;10.90;99.90;;;;;;7380002;19;20366;-76
2023/12/21 12:30:17;;;;;;;19.75;4.40;;;10.80;99.90;;;;;;7377032;19;21653;-76
2023/12/21 12:32:44;;;;;;;21.50;4.88;;;10.90;99.90;;;;;;7378093;19;20015;-76
2023/12/21 12:35:14;;;;;;;18.75;4.18;;;10.90;99.90;;;;;;7374948;19;20470;-72
2023/12/21 12:37:41;;;;;;;19.55;3.78;;;10.90;99.90;;;;;;7369358;19;20022;-70
2023/12/21 12:40:09;;;;;;;24.02;4.93;;;10.90;99.90;;;;;;7367595;19;20018;-70
2023/12/21 12:42:37;;;;;;;17.20;4.10;;;11.00;99.90;;;;;;7363874;19;20033;-70
2023/12/21 12:45:06;;;;;;;16.20;4.57;;;11.10;99.90;;;;;;7361884;19;20022;-70
2023/12/21 12:47:34;;;;;;;16.95;3.95;;;11.30;99.90;;;;;;7375348;19;20081;-70
2023/12/21 12:50:03;;;;;;;19.02;3.83;;;11.50;99.90;;;;;;7367246;19;20022;-72
2023/12/21 12:52:29;;;;;;;19.92;6.18;;;11.60;99.90;;;;;;7365876;19;20019;-70